Time;durP1;ratioP1;P1;durP2;ratioP2;P2;SDS_P1;SDS_P2;PMS_P1;PMS_P2;Temp;Humidity;BMP_temperature;BMP_pressure;BME280_temperature;BME280_humidity;BME280_pressure;Samples;Min_cycle;Max_cycle;Signal;HPM_P1;HPM_P2
2021/09/21 00:00:56;;;;;;;;;;;;;;;14.08;56.96;101305.09;4967461;28;19929;-80
2021/09/21 00:03:21;;;;;;;;;;;;;;;14.12;56.63;101300.31;4974402;28;20010;-79
2021/09/21 00:05:46;;;;;;;;;;;;;;;14.03;57.46;101292.25;4975468;28;19922;-80
2021/09/21 00:08:11;;;;;;;;;;;;;;;14.06;57.41;101303.56;4976840;28;20001;-79
2021/09/21 00:10:37;;;;;;;;;;;;;;;14.08;57.20;101299.75;4975878;28;19973;-80
2021/09/21 00:13:02;;;;;;;;;;;;;;;14.06;59.14;101307.06;4975824;28;19922;-79
2021/09/21 00:15:28;;;;;;;;;;;;;;;14.11;58.36;101315.44;4972961;28;20300;-80
2021/09/21 00:17:53;;;;;;;;;;;;;;;14.13;57.92;101310.75;4974136;28;19929;-81
2021/09/21 00:20:18;;;;;;;;;;;;;;;14.16;57.23;101309.66;4978546;28;20036;-81
2021/09/21 00:22:44;;;;;;;;;;;;;;;14.12;57.62;101302.97;4979559;28;19922;-79
2021/09/21 00:25:10;;;;;;;;;;;;;;;14.14;56.49;101295.66;4978738;28;20443;-80
2021/09/21 00:27:36;;;;;;;;;;;;;;;14.13;56.56;101292.16;4978487;28;19922;-79
2021/09/21 00:30:03;;;;;;;;;;;;;;;14.04;57.33;101293.09;4980114;28;19930;-79
2021/09/21 00:32:28;;;;;;;;;;;;;;;14.00;59.64;101303.22;4978123;28;19984;-80
2021/09/21 00:34:53;;;;;;;;;;;;;;;14.02;57.30;101308.38;4978811;28;19925;-80
2021/09/21 00:37:19;;;;;;;;;;;;;;;14.00;57.14;101294.41;4980022;28;19964;-80
2021/09/21 00:39:45;;;;;;;;;;;;;;;14.00;57.40;101297.88;4980675;28;19976;-79
2021/09/21 00:42:11;;;;;;;;;;;;;;;13.94;58.10;101287.91;4978374;28;19985;-79
2021/09/21 00:44:37;;;;;;;;;;;;;;;13.99;57.07;101298.03;4974993;28;20458;-80
2021/09/21 00:47:03;;;;;;;;;;;;;;;13.89;57.40;101292.81;4980586;28;19998;-80
2021/09/21 00:49:28;;;;;;;;;;;;;;;13.90;57.66;101301.66;4980262;28;20066;-80
2021/09/21 00:51:54;;;;;;;;;;;;;;;13.91;57.46;101319.25;4977878;28;19944;-80
2021/09/21 00:54:19;;;;;;;;;;;;;;;13.90;57.25;101326.41;4978523;28;19922;-79
2021/09/21 00:56:45;;;;;;;;;;;;;;;13.95;56.80;101328.59;4979524;28;19972;-79
2021/09/21 00:59:10;;;;;;;;;;;;;;;14.00;56.69;101331.63;4979143;28;20085;-79
2021/09/21 01:01:35;;;;;;;;;;;;;;;13.97;56.67;101337.25;4975317;28;19922;-80
2021/09/21 01:04:00;;;;;;;;;;;;;;;13.95;57.13;101334.75;4979084;28;19973;-79
2021/09/21 01:06:26;;;;;;;;;;;;;;;13.94;57.01;101330.44;4978710;28;19932;-79
2021/09/21 01:08:51;;;;;;;;;;;;;;;13.94;58.57;101327.78;4978570;28;20382;-80
2021/09/21 01:11:16;;;;;;;;;;;;;;;13.97;60.68;101310.69;4979021;28;20093;-79
2021/09/21 01:13:42;;;;;;;;;;;;;;;14.03;57.53;101300.22;4978770;28;20002;-79
2021/09/21 01:16:07;;;;;;;;;;;;;;;13.96;55.99;101309.00;4977420;28;19936;-80
2021/09/21 01:18:33;;;;;;;;;;;;;;;14.02;55.75;101313.69;4973681;28;20348;-80
2021/09/21 01:21:06;;;;;;;;;;;;;;;14.05;55.63;101323.19;4975772;28;19985;-80
2021/09/21 01:23:32;;;;;;;;;;;;;;;13.91;56.45;101321.91;4979152;28;19922;-81
2021/09/21 01:25:57;;;;;;;;;;;;;;;13.85;56.67;101320.72;4978970;28;19918;-78
2021/09/21 01:28:22;;;;;;;;;;;;;;;13.84;58.02;101326.19;4968892;28;20018;-78
2021/09/21 01:30:47;;;;;;;;;;;;;;;13.78;56.96;101327.63;4978920;28;20024;-79
2021/09/21 01:33:18;;;;;;;;;;;;;;;13.77;57.37;101326.78;4978453;28;19922;-79
2021/09/21 01:35:43;;;;;;;;;;;;;;;13.80;58.10;101326.50;4978775;28;19937;-80
2021/09/21 01:38:08;;;;;;;;;;;;;;;13.80;59.18;101328.31;4954765;28;19922;-80
2021/09/21 01:40:34;;;;;;;;;;;;;;;13.80;57.51;101323.00;4974554;28;19937;-79
2021/09/21 01:42:59;;;;;;;;;;;;;;;13.73;57.57;101322.78;4978294;28;20004;-79
2021/09/21 01:45:25;;;;;;;;;;;;;;;13.78;57.59;101315.19;4978496;28;19929;-79
2021/09/21 01:47:50;;;;;;;;;;;;;;;13.76;57.93;101325.13;4978947;28;19918;-80
2021/09/21 01:55:21;;;;;;;;;;;;;;;13.69;58.06;101315.25;4977386;28;19926;-80
2021/09/21 02:00:30;;;;;;;;;;;;;;;13.79;57.59;101326.63;4977153;28;19957;-80
2021/09/21 02:02:55;;;;;;;;;;;;;;;13.76;57.71;101333.09;4977186;28;20311;-79
2021/09/21 02:05:21;;;;;;;;;;;;;;;13.76;57.75;101334.94;4986818;28;19941;-79
2021/09/21 02:07:46;;;;;;;;;;;;;;;13.71;58.06;101330.06;4986305;28;19926;-80
2021/09/21 02:10:11;;;;;;;;;;;;;;;13.71;58.08;101326.56;4986601;28;20023;-80
2021/09/21 02:12:36;;;;;;;;;;;;;;;13.66;58.15;101321.72;4987945;28;19932;-79
2021/09/21 02:15:02;;;;;;;;;;;;;;;13.68;58.26;101321.53;4986957;28;19926;-79
2021/09/21 02:17:27;;;;;;;;;;;;;;;13.60;58.98;101322.31;4981434;28;19926;-81
2021/09/21 02:19:52;;;;;;;;;;;;;;;13.62;58.75;101327.47;4977497;28;19930;-80
2021/09/21 02:22:18;;;;;;;;;;;;;;;13.64;58.83;101330.84;4975642;28;19953;-79
2021/09/21 02:24:43;;;;;;;;;;;;;;;13.67;58.98;101331.34;4977557;28;19928;-80
2021/09/21 02:27:08;;;;;;;;;;;;;;;13.67;58.61;101336.66;4977862;28;19937;-79
2021/09/21 02:29:34;;;;;;;;;;;;;;;13.71;58.55;101338.03;4977041;28;19934;-80
2021/09/21 02:31:59;;;;;;;;;;;;;;;13.67;58.65;101344.63;4977254;28;19926;-80
2021/09/21 02:34:24;;;;;;;;;;;;;;;13.74;58.76;101344.88;4975079;28;19973;-80
2021/09/21 02:36:49;;;;;;;;;;;;;;;13.70;57.97;101341.66;4974891;28;20016;-79
2021/09/21 02:39:14;;;;;;;;;;;;;;;13.69;58.44;101341.84;4976716;28;19926;-80
2021/09/21 02:41:40;;;;;;;;;;;;;;;13.66;58.17;101350.09;4976712;28;19922;-80
2021/09/21 02:44:05;;;;;;;;;;;;;;;13.62;58.65;101351.41;4976735;28;19919;-80
2021/09/21 02:46:30;;;;;;;;;;;;;;;13.59;58.51;101353.38;4976979;28;20351;-80
2021/09/21 02:48:55;;;;;;;;;;;;;;;13.60;60.30;101351.53;4976493;28;19922;-79
2021/09/21 02:51:21;;;;;;;;;;;;;;;13.64;62.94;101360.06;4976581;28;19934;-78
2021/09/21 02:53:46;;;;;;;;;;;;;;;13.71;60.13;101359.31;4976040;28;20296;-79
2021/09/21 02:56:14;;;;;;;;;;;;;;;13.69;59.61;101350.63;4968858;28;20396;-80
2021/09/21 02:58:40;;;;;;;;;;;;;;;13.73;59.03;101362.66;4976515;28;19922;-79
2021/09/21 03:01:05;;;;;;;;;;;;;;;13.69;59.34;101355.13;4977261;28;19922;-80
2021/09/21 03:03:33;;;;;;;;;;;;;;;13.66;59.58;101360.72;4977263;28;20430;-80
2021/09/21 03:06:03;;;;;;;;;;;;;;;13.66;59.96;101364.25;4976856;28;19926;-80
2021/09/21 03:08:31;;;;;;;;;;;;;;;13.65;60.17;101359.06;4976312;28;19926;-81
2021/09/21 03:18:46;;;;;;;;;;;;;;;13.52;60.59;101368.25;4980770;28;19933;-80
2021/09/21 03:21:11;;;;;;;;;;;;;;;13.60;59.80;101375.47;4980944;28;19922;-80
2021/09/21 03:23:36;;;;;;;;;;;;;;;13.48;60.26;101366.88;4980504;28;19933;-80
2021/09/21 03:26:02;;;;;;;;;;;;;;;13.48;60.28;101380.16;4978496;28;19925;-81
2021/09/21 03:28:27;;;;;;;;;;;;;;;13.46;60.28;101375.97;4976375;28;20013;-79
2021/09/21 03:30:52;;;;;;;;;;;;;;;13.46;61.46;101373.31;4972302;28;19977;-79
2021/09/21 03:33:17;;;;;;;;;;;;;;;13.47;60.54;101369.69;4957158;28;19922;-80
2021/09/21 03:35:43;;;;;;;;;;;;;;;13.44;61.94;101370.81;4978505;28;20490;-79
2021/09/21 03:38:08;;;;;;;;;;;;;;;13.50;60.73;101370.22;4977568;28;20861;-79
2021/09/21 03:40:33;;;;;;;;;;;;;;;13.46;61.42;101382.13;4975077;28;20451;-80
2021/09/21 03:42:59;;;;;;;;;;;;;;;13.45;61.61;101382.28;4973899;28;19965;-80
2021/09/21 03:45:26;;;;;;;;;;;;;;;13.43;61.55;101382.44;4975961;28;19945;-81
2021/09/21 03:47:51;;;;;;;;;;;;;;;13.33;63.16;101392.28;4976802;28;19922;-81
2021/09/21 03:50:16;;;;;;;;;;;;;;;13.34;61.79;101389.47;4976838;28;19926;-80
2021/09/21 03:52:42;;;;;;;;;;;;;;;13.29;61.87;101399.69;4979405;28;20105;-79
2021/09/21 03:55:07;;;;;;;;;;;;;;;13.23;62.35;101392.31;4977425;28;19922;-78
2021/09/21 03:57:32;;;;;;;;;;;;;;;13.27;62.00;101393.69;4979994;28;19922;-79
2021/09/21 03:59:57;;;;;;;;;;;;;;;13.25;62.25;101403.63;4979272;28;19930;-79
2021/09/21 04:02:23;;;;;;;;;;;;;;;13.22;62.00;101403.91;4979605;28;19922;-80
2021/09/21 04:04:48;;;;;;;;;;;;;;;13.24;62.55;101409.06;4980152;28;19980;-79
2021/09/21 04:07:13;;;;;;;;;;;;;;;13.29;61.57;101415.63;4979220;28;20013;-80
2021/09/21 04:09:39;;;;;;;;;;;;;;;13.25;61.91;101422.22;4980906;28;19922;-79
2021/09/21 04:12:06;;;;;;;;;;;;;;;13.19;62.89;101425.44;4978129;28;19949;-79
2021/09/21 04:14:31;;;;;;;;;;;;;;;13.16;62.28;101426.59;4980061;28;20017;-80
2021/09/21 04:16:57;;;;;;;;;;;;;;;13.18;62.36;101431.75;4962348;28;19994;-80
2021/09/21 04:19:22;;;;;;;;;;;;;;;13.17;62.88;101430.91;4978672;28;19922;-80
2021/09/21 04:21:47;;;;;;;;;;;;;;;13.22;62.83;101432.28;4979722;28;20320;-79
2021/09/21 04:24:13;;;;;;;;;;;;;;;13.24;62.47;101435.63;4978594;28;19946;-80
2021/09/21 04:26:38;;;;;;;;;;;;;;;13.26;62.33;101431.00;4977794;28;20020;-80
2021/09/21 04:29:03;;;;;;;;;;;;;;;13.24;63.02;101436.47;4980206;28;19961;-80
2021/09/21 04:31:28;;;;;;;;;;;;;;;13.30;62.22;101435.91;4979423;28;20354;-79
2021/09/21 04:33:54;;;;;;;;;;;;;;;13.34;62.40;101439.09;4978621;28;19922;-79
2021/09/21 04:36:20;;;;;;;;;;;;;;;13.27;63.01;101441.50;4979563;28;19929;-78
2021/09/21 04:38:47;;;;;;;;;;;;;;;13.17;64.97;101438.88;4978575;28;19922;-80
2021/09/21 04:41:12;;;;;;;;;;;;;;;13.17;64.11;101438.88;4978269;28;19926;-79
2021/09/21 04:43:37;;;;;;;;;;;;;;;13.14;63.91;101436.50;4978019;28;19985;-79
2021/09/21 04:46:03;;;;;;;;;;;;;;;13.12;64.95;101434.97;4980447;28;19929;-79
2021/09/21 04:48:29;;;;;;;;;;;;;;;13.17;64.05;101436.22;4979557;28;19990;-80
2021/09/21 04:50:56;;;;;;;;;;;;;;;13.11;65.27;101439.47;4982376;28;20020;-79
2021/09/21 04:53:21;;;;;;;;;;;;;;;13.10;65.59;101445.75;4980769;28;19929;-79
2021/09/21 04:55:46;;;;;;;;;;;;;;;13.12;66.88;101453.56;4979745;28;19922;-78
2021/09/21 04:58:12;;;;;;;;;;;;;;;13.22;64.72;101449.03;4980217;28;19930;-80
2021/09/21 05:00:37;;;;;;;;;;;;;;;13.22;63.60;101450.88;4979386;28;19929;-80
2021/09/21 05:03:02;;;;;;;;;;;;;;;13.15;63.97;101442.66;4978198;28;19954;-78
2021/09/21 05:05:27;;;;;;;;;;;;;;;13.07;64.22;101439.91;4980562;28;19922;-78
2021/09/21 05:07:53;;;;;;;;;;;;;;;13.10;64.27;101447.56;4979694;28;19922;-78
2021/09/21 05:10:18;;;;;;;;;;;;;;;13.07;64.97;101447.88;4978371;28;19932;-78
2021/09/21 05:12:43;;;;;;;;;;;;;;;13.09;64.63;101448.56;4979364;28;19922;-78
2021/09/21 05:15:09;;;;;;;;;;;;;;;13.06;67.19;101454.13;4976309;28;19934;-80
2021/09/21 05:17:35;;;;;;;;;;;;;;;13.08;64.35;101455.66;4977121;28;19946;-78
2021/09/21 05:20:00;;;;;;;;;;;;;;;13.09;64.23;101462.66;4975262;28;19929;-79
2021/09/21 05:22:26;;;;;;;;;;;;;;;13.08;64.62;101471.59;4972779;28;19922;-79
2021/09/21 05:24:51;;;;;;;;;;;;;;;13.11;65.04;101478.47;4978147;28;19937;-79
2021/09/21 05:27:16;;;;;;;;;;;;;;;13.11;65.79;101475.81;4978861;28;20013;-79
2021/09/21 05:29:42;;;;;;;;;;;;;;;13.09;66.84;101480.44;4978707;28;19926;-77
2021/09/21 05:32:08;;;;;;;;;;;;;;;13.09;67.50;101477.78;4975273;28;19926;-78
2021/09/21 05:34:33;;;;;;;;;;;;;;;13.12;65.61;101480.13;4971404;28;20443;-81
2021/09/21 05:36:58;;;;;;;;;;;;;;;13.14;66.03;101472.84;4978083;28;20021;-78
2021/09/21 05:39:23;;;;;;;;;;;;;;;13.10;66.34;101477.59;4977992;28;19947;-79
2021/09/21 05:41:48;;;;;;;;;;;;;;;13.16;65.49;101481.53;4977420;28;19918;-78
2021/09/21 05:44:14;;;;;;;;;;;;;;;13.20;65.28;101490.84;4977060;28;19948;-79
2021/09/21 05:46:39;;;;;;;;;;;;;;;13.22;65.07;101502.16;4974609;28;19918;-80
2021/09/21 05:49:04;;;;;;;;;;;;;;;13.24;68.31;101510.84;4977567;28;19923;-79
2021/09/21 05:51:29;;;;;;;;;;;;;;;13.18;65.17;101517.56;4970698;28;19926;-79
2021/09/21 05:53:55;;;;;;;;;;;;;;;13.21;65.94;101527.06;4974520;28;20292;-79
2021/09/21 05:56:21;;;;;;;;;;;;;;;13.24;64.94;101529.44;4978127;28;19937;-79
2021/09/21 05:58:46;;;;;;;;;;;;;;;13.21;66.29;101529.72;4960505;28;19923;-79
2021/09/21 06:01:12;;;;;;;;;;;;;;;13.17;65.46;101534.47;4978159;28;19922;-79
2021/09/21 06:03:38;;;;;;;;;;;;;;;13.15;65.40;101541.75;4960198;28;19922;-79
2021/09/21 06:06:03;;;;;;;;;;;;;;;13.11;68.21;101542.19;4976668;28;19930;-79
2021/09/21 06:08:28;;;;;;;;;;;;;;;13.12;65.76;101543.84;4977506;28;20336;-78
2021/09/21 06:10:53;;;;;;;;;;;;;;;13.03;64.92;101561.47;4978010;28;19933;-79
2021/09/21 06:13:19;;;;;;;;;;;;;;;13.08;64.70;101555.75;4977975;28;19922;-80
2021/09/21 06:15:45;;;;;;;;;;;;;;;13.03;65.08;101558.00;4977768;28;19985;-80
2021/09/21 06:18:10;;;;;;;;;;;;;;;13.05;65.31;101567.47;4975613;28;19926;-79
2021/09/21 06:20:36;;;;;;;;;;;;;;;13.15;65.12;101570.94;4972018;28;19930;-79
2021/09/21 06:23:02;;;;;;;;;;;;;;;13.18;64.67;101572.50;4977654;28;19930;-79
2021/09/21 06:25:27;;;;;;;;;;;;;;;13.15;64.74;101576.25;4977979;28;19977;-80
2021/09/21 06:27:53;;;;;;;;;;;;;;;13.25;64.58;101573.63;4980330;28;19949;-80
2021/09/21 06:30:18;;;;;;;;;;;;;;;13.22;65.17;101581.84;4962228;28;19944;-79
2021/09/21 06:32:44;;;;;;;;;;;;;;;13.32;65.79;101584.50;4975001;28;20021;-79
2021/09/21 06:35:09;;;;;;;;;;;;;;;13.35;65.83;101582.41;4951277;28;19972;-80
2021/09/21 06:37:35;;;;;;;;;;;;;;;13.48;67.39;101582.09;4977038;28;19918;-79
2021/09/21 06:40:00;;;;;;;;;;;;;;;13.59;67.28;101576.59;4976726;28;19922;-79
2021/09/21 06:42:25;;;;;;;;;;;;;;;13.73;65.13;101579.75;4975145;28;19922;-80
2021/09/21 06:44:51;;;;;;;;;;;;;;;13.75;67.20;101577.78;4976825;28;19926;-79
2021/09/21 06:47:17;;;;;;;;;;;;;;;13.91;63.78;101582.47;4975146;28;19919;-79
2021/09/21 06:49:42;;;;;;;;;;;;;;;13.94;65.88;101587.50;4972307;28;19925;-79
2021/09/21 06:52:07;;;;;;;;;;;;;;;13.96;63.64;101599.66;4976090;28;19926;-80
2021/09/21 06:54:32;;;;;;;;;;;;;;;13.97;64.18;101600.53;4975713;28;19922;-81
2021/09/21 06:56:58;;;;;;;;;;;;;;;14.01;64.76;101605.41;4976770;28;19933;-81
2021/09/21 06:59:23;;;;;;;;;;;;;;;14.06;63.72;101610.25;4980892;28;19922;-79
2021/09/21 07:01:48;;;;;;;;;;;;;;;14.03;63.40;101621.19;4976373;28;20303;-79
2021/09/21 07:04:13;;;;;;;;;;;;;;;13.96;61.61;101614.78;4975190;28;19925;-79
2021/09/21 07:06:39;;;;;;;;;;;;;;;13.81;60.24;101625.91;4977168;28;19929;-80
2021/09/21 07:09:04;;;;;;;;;;;;;;;13.76;60.13;101628.16;4975935;28;19926;-81
2021/09/21 07:11:30;;;;;;;;;;;;;;;13.83;63.32;101632.91;4972652;28;19942;-80
2021/09/21 07:13:55;;;;;;;;;;;;;;;13.83;60.32;101628.41;4977554;28;19969;-80
2021/09/21 07:16:21;;;;;;;;;;;;;;;13.95;60.75;101637.88;4976592;28;19930;-79
2021/09/21 07:18:46;;;;;;;;;;;;;;;13.98;60.62;101634.91;4974499;28;19929;-80
2021/09/21 07:21:11;;;;;;;;;;;;;;;13.94;62.30;101633.56;4977500;28;19981;-81
2021/09/21 07:23:36;;;;;;;;;;;;;;;14.03;62.04;101629.16;4977603;28;19922;-81
2021/09/21 07:26:02;;;;;;;;;;;;;;;14.07;63.64;101625.22;4974772;28;20313;-80
2021/09/21 07:28:27;;;;;;;;;;;;;;;14.15;64.40;101617.34;4976261;28;19968;-81
2021/09/21 07:30:52;;;;;;;;;;;;;;;14.33;62.91;101613.91;4976914;28;19926;-80
2021/09/21 07:33:18;;;;;;;;;;;;;;;14.47;65.24;101618.72;4973218;28;20496;-79
2021/09/21 07:35:44;;;;;;;;;;;;;;;14.55;63.93;101607.31;4958602;28;19929;-80
2021/09/21 07:38:09;;;;;;;;;;;;;;;14.63;63.70;101608.25;4975932;28;20046;-80
2021/09/21 07:40:37;;;;;;;;;;;;;;;14.81;63.91;101602.09;4976720;28;20376;-81
2021/09/21 07:43:03;;;;;;;;;;;;;;;15.06;63.17;101614.63;4976015;28;19923;-80
2021/09/21 07:45:28;;;;;;;;;;;;;;;15.20;62.26;101623.84;4976134;28;19977;-80
2021/09/21 07:47:54;;;;;;;;;;;;;;;15.26;60.28;101627.75;4975310;28;19918;-81
2021/09/21 07:50:19;;;;;;;;;;;;;;;15.21;60.78;101635.38;4975329;28;19929;-80
2021/09/21 07:52:44;;;;;;;;;;;;;;;15.26;60.52;101641.06;4974221;28;20435;-80
2021/09/21 07:55:10;;;;;;;;;;;;;;;15.27;60.14;101645.41;4974292;28;19972;-82
2021/09/21 07:57:38;;;;;;;;;;;;;;;15.49;58.66;101636.06;4977112;28;19918;-83
2021/09/21 08:00:04;;;;;;;;;;;;;;;15.76;59.55;101640.44;4969777;28;20069;-82
2021/09/21 08:02:29;;;;;;;;;;;;;;;16.30;60.54;101643.66;4974249;28;20405;-83
2021/09/21 08:04:54;;;;;;;;;;;;;;;17.23;60.64;101641.78;4976075;28;19929;-82
2021/09/21 08:07:19;;;;;;;;;;;;;;;18.40;57.06;101643.81;4984035;28;19922;-82
2021/09/21 08:09:45;;;;;;;;;;;;;;;19.19;52.29;101653.50;4975194;28;20009;-81
2021/09/21 08:12:10;;;;;;;;;;;;;;;20.31;51.82;101651.63;4975352;28;20151;-82
2021/09/21 08:14:39;;;;;;;;;;;;;;;21.45;46.72;101656.25;4975098;28;20123;-79
2021/09/21 08:17:04;;;;;;;;;;;;;;;21.92;50.41;101660.06;4968207;28;19922;-83
2021/09/21 08:19:30;;;;;;;;;;;;;;;22.59;48.31;101655.78;4976381;28;19981;-82
2021/09/21 08:21:55;;;;;;;;;;;;;;;23.20;44.37;101660.25;4976232;28;20400;-82
2021/09/21 08:24:20;;;;;;;;;;;;;;;23.52;39.39;101663.13;4975009;28;19938;-83
2021/09/21 08:26:45;;;;;;;;;;;;;;;23.16;35.13;101659.00;4973972;28;19922;-82
2021/09/21 08:29:12;;;;;;;;;;;;;;;23.19;36.96;101657.75;4976565;28;19923;-83
2021/09/21 08:31:38;;;;;;;;;;;;;;;23.43;37.46;101675.16;4974611;28;19984;-82
2021/09/21 08:34:04;;;;;;;;;;;;;;;23.74;33.83;101669.97;4973999;28;19938;-82
2021/09/21 08:36:30;;;;;;;;;;;;;;;23.57;34.90;101670.59;4976737;28;19929;-83
2021/09/21 08:38:56;;;;;;;;;;;;;;;24.22;33.12;101668.78;4956870;28;20562;-83
2021/09/21 08:41:21;;;;;;;;;;;;;;;24.99;34.77;101658.75;4979603;28;19926;-82
2021/09/21 08:43:47;;;;;;;;;;;;;;;25.10;29.82;101659.94;4980021;28;20395;-83
2021/09/21 08:46:12;;;;;;;;;;;;;;;25.28;29.53;101661.88;4978737;28;20288;-82
2021/09/21 08:48:38;;;;;;;;;;;;;;;25.32;32.09;101663.13;4963708;28;20027;-81
2021/09/21 08:51:03;;;;;;;;;;;;;;;25.91;29.35;101665.44;4979035;28;19930;-84
2021/09/21 08:53:29;;;;;;;;;;;;;;;25.82;29.83;101663.03;4973534;28;19929;-83
2021/09/21 08:55:56;;;;;;;;;;;;;;;26.00;28.77;101664.91;4960478;28;19949;-82
2021/09/21 08:58:24;;;;;;;;;;;;;;;26.65;29.92;101666.19;4978382;28;19929;-84
2021/09/21 09:00:49;;;;;;;;;;;;;;;27.10;26.51;101669.25;4977277;28;19929;-84
2021/09/21 09:03:15;;;;;;;;;;;;;;;26.48;27.20;101668.69;4981166;28;19973;-83
2021/09/21 09:05:43;;;;;;;;;;;;;;;26.81;27.81;101673.66;4981353;28;19971;-85
2021/09/21 09:08:09;;;;;;;;;;;;;;;27.43;28.85;101680.63;4976408;28;19922;-84
2021/09/21 09:10:34;;;;;;;;;;;;;;;27.35;27.18;101691.84;4980564;28;19937;-82
2021/09/21 09:12:59;;;;;;;;;;;;;;;27.70;26.21;101689.13;4981801;28;20343;-83
2021/09/21 09:15:26;;;;;;;;;;;;;;;27.39;25.49;101693.00;4979971;28;19922;-84
2021/09/21 09:17:53;;;;;;;;;;;;;;;27.08;26.13;101703.13;4958097;28;19980;-82
2021/09/21 09:20:18;;;;;;;;;;;;;;;26.26;26.94;101715.28;4983757;28;20005;-83
2021/09/21 09:22:43;;;;;;;;;;;;;;;26.02;28.35;101710.78;4986701;28;19918;-82
2021/09/21 09:25:08;;;;;;;;;;;;;;;25.74;29.59;101711.25;4973074;28;19923;-84
2021/09/21 09:27:41;;;;;;;;;;;;;;;24.32;30.12;101720.50;4980039;28;20020;-82
2021/09/21 09:30:10;;;;;;;;;;;;;;;23.02;31.15;101714.81;4962656;28;20001;-84
2021/09/21 09:32:46;;;;;;;;;;;;;;;21.81;33.50;101711.81;4978229;28;19984;-83
2021/09/21 09:35:21;;;;;;;;;;;;;;;20.92;35.49;101725.69;4979505;28;20556;-83
2021/09/21 09:37:46;;;;;;;;;;;;;;;20.04;37.70;101716.72;4979011;28;20383;-81
2021/09/21 09:40:11;;;;;;;;;;;;;;;20.21;35.66;101714.69;4979464;28;19926;-82
2021/09/21 09:42:41;;;;;;;;;;;;;;;19.61;36.90;101717.31;4981188;28;19937;-81
2021/09/21 09:45:07;;;;;;;;;;;;;;;19.56;37.11;101717.03;4980754;28;19918;-82
2021/09/21 09:47:42;;;;;;;;;;;;;;;19.20;38.46;101725.72;4977322;28;20420;-81
2021/09/21 09:50:11;;;;;;;;;;;;;;;19.04;38.32;101720.47;4978573;28;19922;-83
2021/09/21 09:52:37;;;;;;;;;;;;;;;18.82;38.97;101727.47;4975501;28;19939;-80
2021/09/21 09:55:02;;;;;;;;;;;;;;;19.09;39.37;101723.44;4962576;28;19918;-81
2021/09/21 09:57:29;;;;;;;;;;;;;;;19.34;38.92;101718.72;4979770;28;19977;-82
2021/09/21 09:59:55;;;;;;;;;;;;;;;19.42;39.14;101715.97;4980235;28;20097;-81
2021/09/21 10:02:20;;;;;;;;;;;;;;;19.48;38.40;101717.94;4979741;28;20080;-81
2021/09/21 10:04:45;;;;;;;;;;;;;;;19.05;37.84;101720.28;4978178;28;19919;-83
2021/09/21 10:07:11;;;;;;;;;;;;;;;18.87;38.18;101720.56;4979666;28;19933;-81
2021/09/21 10:09:36;;;;;;;;;;;;;;;18.64;39.60;101725.06;4979719;28;20380;-82
2021/09/21 10:12:02;;;;;;;;;;;;;;;18.68;40.53;101721.81;4977384;28;20347;-83
2021/09/21 10:14:27;;;;;;;;;;;;;;;19.01;39.38;101718.16;4976449;28;20407;-81
2021/09/21 10:17:00;;;;;;;;;;;;;;;18.80;39.26;101724.13;4977796;28;19933;-81
2021/09/21 10:19:26;;;;;;;;;;;;;;;18.68;38.61;101726.34;4973736;28;19919;-81
2021/09/21 10:21:53;;;;;;;;;;;;;;;18.64;39.71;101728.56;4977910;28;19926;-81
2021/09/21 10:24:29;;;;;;;;;;;;;;;18.87;38.35;101723.25;4961122;28;19929;-81
2021/09/21 10:26:59;;;;;;;;;;;;;;;18.66;39.53;101721.19;4978828;28;19922;-83
2021/09/21 10:29:28;;;;;;;;;;;;;;;18.86;38.67;101734.16;4974138;28;19919;-83
2021/09/21 10:31:57;;;;;;;;;;;;;;;18.54;39.50;101727.91;4975846;28;19930;-81
2021/09/21 10:34:22;;;;;;;;;;;;;;;18.60;38.80;101732.59;4978147;28;19922;-81
2021/09/21 10:36:49;;;;;;;;;;;;;;;18.41;39.56;101727.66;4979388;28;19945;-83
2021/09/21 10:39:15;;;;;;;;;;;;;;;18.17;40.20;101729.41;4978865;28;19930;-83
2021/09/21 10:41:49;;;;;;;;;;;;;;;18.23;41.86;101725.22;4978952;28;19922;-81
2021/09/21 10:44:15;;;;;;;;;;;;;;;18.31;40.01;101714.47;4978265;28;19938;-82
2021/09/21 10:46:48;;;;;;;;;;;;;;;18.03;40.96;101717.56;4976195;28;19926;-81
2021/09/21 10:49:26;;;;;;;;;;;;;;;18.02;40.51;101721.28;4978267;28;19918;-82
2021/09/21 10:51:51;;;;;;;;;;;;;;;18.03;40.84;101722.94;4975704;28;19937;-81
2021/09/21 10:54:26;;;;;;;;;;;;;;;18.11;39.97;101707.84;4976242;28;19922;-80
2021/09/21 10:56:51;;;;;;;;;;;;;;;18.21;39.75;101705.78;4977711;28;19926;-81
2021/09/21 10:59:18;;;;;;;;;;;;;;;18.11;40.30;101699.81;4979121;28;19918;-82
2021/09/21 11:01:48;;;;;;;;;;;;;;;18.17;41.73;101699.16;4962018;28;19918;-82
2021/09/21 11:04:13;;;;;;;;;;;;;;;18.26;40.93;101698.09;4979378;28;19926;-81
2021/09/21 11:06:42;;;;;;;;;;;;;;;18.48;40.36;101704.53;4978156;28;20311;-82
2021/09/21 11:09:07;;;;;;;;;;;;;;;18.19;40.12;101702.50;4978716;28;20000;-81
2021/09/21 11:11:34;;;;;;;;;;;;;;;18.07;41.49;101696.66;4986110;28;19926;-81
2021/09/21 11:13:59;;;;;;;;;;;;;;;18.03;40.40;101690.81;4976423;28;19977;-81
2021/09/21 11:16:25;;;;;;;;;;;;;;;18.01;40.67;101687.47;4977415;28;19922;-83
2021/09/21 11:18:54;;;;;;;;;;;;;;;18.08;40.76;101692.97;4974251;28;19922;-82
2021/09/21 11:21:19;;;;;;;;;;;;;;;18.06;40.12;101691.47;4974922;28;19922;-81
2021/09/21 11:23:44;;;;;;;;;;;;;;;18.37;38.68;101694.19;4981255;28;19929;-82
2021/09/21 11:26:11;;;;;;;;;;;;;;;18.40;38.80;101693.84;4984126;28;20340;-83
2021/09/21 11:28:38;;;;;;;;;;;;;;;18.33;39.42;101696.41;4983887;28;19926;-81
2021/09/21 11:31:05;;;;;;;;;;;;;;;18.31;38.68;101709.13;4979794;28;19926;-79
2021/09/21 11:33:31;;;;;;;;;;;;;;;18.26;41.04;101714.19;4962921;28;19922;-80
2021/09/21 11:35:58;;;;;;;;;;;;;;;18.32;39.80;101712.63;4983403;28;19923;-79
2021/09/21 11:38:27;;;;;;;;;;;;;;;18.26;41.04;101711.50;4963747;28;20384;-84
2021/09/21 11:40:52;;;;;;;;;;;;;;;18.23;41.47;101707.31;4978139;28;19922;-80
2021/09/21 11:43:18;;;;;;;;;;;;;;;18.38;40.92;101712.78;4978758;28;19922;-81
2021/09/21 11:45:45;;;;;;;;;;;;;;;18.40;40.30;101718.81;4975621;28;19922;-81
2021/09/21 11:48:12;;;;;;;;;;;;;;;18.44;39.61;101724.63;4977096;28;19937;-82
2021/09/21 11:50:40;;;;;;;;;;;;;;;18.63;37.59;101724.19;4976789;28;19926;-82
2021/09/21 11:53:07;;;;;;;;;;;;;;;18.37;39.28;101727.16;4977870;28;20384;-82
2021/09/21 11:55:34;;;;;;;;;;;;;;;18.19;39.76;101715.88;4977833;28;19993;-83
2021/09/21 11:57:59;;;;;;;;;;;;;;;18.42;38.65;101719.47;4977607;28;20297;-81
2021/09/21 12:00:26;;;;;;;;;;;;;;;18.39;39.22;101727.00;4976668;28;19928;-81
2021/09/21 12:02:52;;;;;;;;;;;;;;;18.40;39.64;101716.13;4976779;28;19926;-82
2021/09/21 12:05:17;;;;;;;;;;;;;;;18.10;41.19;101722.25;4978527;28;19922;-81
2021/09/21 12:07:43;;;;;;;;;;;;;;;18.04;40.48;101718.41;4961184;28;20265;-82
2021/09/21 12:10:11;;;;;;;;;;;;;;;17.85;40.83;101714.28;4982326;28;20048;-84
2021/09/21 12:12:36;;;;;;;;;;;;;;;17.76;42.21;101712.63;4988445;28;19937;-81
2021/09/21 12:15:02;;;;;;;;;;;;;;;17.87;40.85;101711.44;4980293;28;19926;-82
2021/09/21 12:17:27;;;;;;;;;;;;;;;17.91;42.49;101726.16;4979620;28;20456;-84
2021/09/21 12:19:59;;;;;;;;;;;;;;;18.09;41.44;101723.25;4981941;28;20340;-80
2021/09/21 12:22:25;;;;;;;;;;;;;;;18.19;40.72;101724.72;4974509;28;19946;-81
2021/09/21 12:24:50;;;;;;;;;;;;;;;18.16;41.77;101724.22;4982719;28;19926;-81
2021/09/21 12:27:16;;;;;;;;;;;;;;;18.23;40.54;101719.84;4964230;28;19926;-80
2021/09/21 12:29:41;;;;;;;;;;;;;;;18.12;40.94;101712.22;4980616;28;19926;-83
2021/09/21 12:32:07;;;;;;;;;;;;;;;18.16;41.20;101710.84;4981265;28;20300;-82
2021/09/21 12:34:33;;;;;;;;;;;;;;;18.09;43.90;101709.88;4981495;28;19926;-82
2021/09/21 12:37:00;;;;;;;;;;;;;;;18.26;41.84;101714.19;4979866;28;20014;-81
2021/09/21 12:39:27;;;;;;;;;;;;;;;18.53;39.37;101704.00;4980606;28;19926;-83
2021/09/21 12:41:53;;;;;;;;;;;;;;;18.53;41.58;101706.69;4979828;28;19944;-83
2021/09/21 12:44:21;;;;;;;;;;;;;;;18.66;41.25;101705.09;4981997;28;20205;-83